sensor_id;sensor_type;location;lat;lon;timestamp;temperature;humidity
14349;DHT22;7258;50.376;8.742;2024-02-04T00:01:25;9.30;99.90
14349;DHT22;7258;50.376;8.742;2024-02-04T00:03:28;9.30;99.90
14349;DHT22;7258;50.376;8.742;2024-02-04T00:05:31;9.30;99.90
14349;DHT22;7258;50.376;8.742;2024-02-04T00:07:35;9.30;99.90
14349;DHT22;7258;50.376;8.742;2024-02-04T00:09:38;9.30;99.90
14349;DHT22;7258;50.376;8.742;2024-02-04T00:11:42;9.30;99.90
14349;DHT22;7258;50.376;8.742;2024-02-04T00:13:45;9.30;99.90
14349;DHT22;7258;50.376;8.742;2024-02-04T00:15:48;9.30;99.90
14349;DHT22;7258;50.376;8.742;2024-02-04T00:17:52;9.30;99.90
14349;DHT22;7258;50.376;8.742;2024-02-04T00:19:54;9.30;99.90
14349;DHT22;7258;50.376;8.742;2024-02-04T00:21:57;9.30;99.90
14349;DHT22;7258;50.376;8.742;2024-02-04T00:24:00;9.30;99.90
14349;DHT22;7258;50.376;8.742;2024-02-04T00:26:04;9.30;99.90
14349;DHT22;7258;50.376;8.742;2024-02-04T00:28:06;9.40;99.90
14349;DHT22;7258;50.376;8.742;2024-02-04T00:30:09;9.40;99.90
14349;DHT22;7258;50.376;8.742;2024-02-04T00:32:12;9.40;99.90
14349;DHT22;7258;50.376;8.742;2024-02-04T00:34:16;9.40;99.90
14349;DHT22;7258;50.376;8.742;2024-02-04T00:36:19;9.30;99.90
14349;DHT22;7258;50.376;8.742;2024-02-04T00:38:23;9.30;99.90
14349;DHT22;7258;50.376;8.742;2024-02-04T00:40:25;9.20;99.90
14349;DHT22;7258;50.376;8.742;2024-02-04T00:42:29;9.20;99.90
14349;DHT22;7258;50.376;8.742;2024-02-04T00:44:31;9.10;99.90
14349;DHT22;7258;50.376;8.742;2024-02-04T00:46:33;9.10;99.90
14349;DHT22;7258;50.376;8.742;2024-02-04T00:48:36;9.00;99.90
14349;DHT22;7258;50.376;8.742;2024-02-04T00:50:41;9.00;99.90
14349;DHT22;7258;50.376;8.742;2024-02-04T00:52:44;8.90;99.90
14349;DHT22;7258;50.376;8.742;2024-02-04T00:54:47;8.90;99.90
14349;DHT22;7258;50.376;8.742;2024-02-04T00:56:49;8.80;99.90
14349;DHT22;7258;50.376;8.742;2024-02-04T00:58:55;8.70;99.90
14349;DHT22;7258;50.376;8.742;2024-02-04T01:00:58;8.70;99.90
14349;DHT22;7258;50.376;8.742;2024-02-04T01:03:02;8.70;99.90
14349;DHT22;7258;50.376;8.742;2024-02-04T01:05:06;8.70;99.90
14349;DHT22;7258;50.376;8.742;2024-02-04T01:07:11;8.70;99.90
14349;DHT22;7258;50.376;8.742;2024-02-04T01:09:14;8.70;99.90
14349;DHT22;7258;50.376;8.742;2024-02-04T01:11:16;8.80;99.90
14349;DHT22;7258;50.376;8.742;2024-02-04T01:13:19;8.80;99.90
14349;DHT22;7258;50.376;8.742;2024-02-04T01:15:22;8.80;99.90
14349;DHT22;7258;50.376;8.742;2024-02-04T01:17:25;8.90;99.90
14349;DHT22;7258;50.376;8.742;2024-02-04T01:19:28;8.90;99.90
14349;DHT22;7258;50.376;8.742;2024-02-04T01:21:31;8.90;99.90
14349;DHT22;7258;50.376;8.742;2024-02-04T01:23:35;8.90;99.90
14349;DHT22;7258;50.376;8.742;2024-02-04T01:25:37;8.90;99.90
14349;DHT22;7258;50.376;8.742;2024-02-04T01:27:45;8.90;99.90
14349;DHT22;7258;50.376;8.742;2024-02-04T01:29:48;8.90;99.90
14349;DHT22;7258;50.376;8.742;2024-02-04T01:31:51;8.90;99.90
14349;DHT22;7258;50.376;8.742;2024-02-04T01:33:54;9.00;99.90
14349;DHT22;7258;50.376;8.742;2024-02-04T01:35:57;9.00;99.90
14349;DHT22;7258;50.376;8.742;2024-02-04T01:38:00;9.10;99.90
14349;DHT22;7258;50.376;8.742;2024-02-04T01:40:06;9.20;99.90
14349;DHT22;7258;50.376;8.742;2024-02-04T01:42:08;9.30;99.90
14349;DHT22;7258;50.376;8.742;2024-02-04T01:44:12;9.40;99.90
14349;DHT22;7258;50.376;8.742;2024-02-04T01:46:14;9.40;99.90
14349;DHT22;7258;50.376;8.742;2024-02-04T01:48:17;9.50;99.90
14349;DHT22;7258;50.376;8.742;2024-02-04T01:50:20;9.60;99.90
14349;DHT22;7258;50.376;8.742;2024-02-04T01:52:23;9.60;99.90
14349;DHT22;7258;50.376;8.742;2024-02-04T01:54:25;9.70;99.90
14349;DHT22;7258;50.376;8.742;2024-02-04T01:56:31;9.70;99.90
14349;DHT22;7258;50.376;8.742;2024-02-04T01:58:34;9.80;99.90
14349;DHT22;7258;50.376;8.742;2024-02-04T02:00:37;9.80;99.90
14349;DHT22;7258;50.376;8.742;2024-02-04T02:02:41;9.80;99.90
14349;DHT22;7258;50.376;8.742;2024-02-04T02:04:44;9.80;99.90
14349;DHT22;7258;50.376;8.742;2024-02-04T02:06:48;9.80;99.90
14349;DHT22;7258;50.376;8.742;2024-02-04T02:08:52;9.80;99.90
14349;DHT22;7258;50.376;8.742;2024-02-04T02:11:00;9.80;99.90
14349;DHT22;7258;50.376;8.742;2024-02-04T02:13:11;9.80;99.90
14349;DHT22;7258;50.376;8.742;2024-02-04T02:15:21;9.70;99.90
14349;DHT22;7258;50.376;8.742;2024-02-04T02:17:31;9.70;99.90
14349;DHT22;7258;50.376;8.742;2024-02-04T02:19:41;9.60;99.90
14349;DHT22;7258;50.376;8.742;2024-02-04T02:21:52;9.60;99.90
14349;DHT22;7258;50.376;8.742;2024-02-04T02:24:04;9.60;99.90
14349;DHT22;7258;50.376;8.742;2024-02-04T02:26:16;9.50;99.90
14349;DHT22;7258;50.376;8.742;2024-02-04T02:28:20;9.50;99.90
14349;DHT22;7258;50.376;8.742;2024-02-04T02:30:23;9.40;99.90
14349;DHT22;7258;50.376;8.742;2024-02-04T02:32:26;9.40;99.90
14349;DHT22;7258;50.376;8.742;2024-02-04T02:34:29;9.30;99.90
14349;DHT22;7258;50.376;8.742;2024-02-04T02:36:44;9.20;99.90
14349;DHT22;7258;50.376;8.742;2024-02-04T02:38:55;9.10;99.90
14349;DHT22;7258;50.376;8.742;2024-02-04T02:41:04;9.00;99.90
14349;DHT22;7258;50.376;8.742;2024-02-04T02:43:11;9.00;99.90
14349;DHT22;7258;50.376;8.742;2024-02-04T02:45:15;8.90;99.90
14349;DHT22;7258;50.376;8.742;2024-02-04T02:47:19;8.90;99.90
14349;DHT22;7258;50.376;8.742;2024-02-04T02:49:21;8.80;99.90
14349;DHT22;7258;50.376;8.742;2024-02-04T02:51:24;8.80;99.90
14349;DHT22;7258;50.376;8.742;2024-02-04T02:53:27;8.70;99.90
14349;DHT22;7258;50.376;8.742;2024-02-04T02:55:30;8.70;99.90
14349;DHT22;7258;50.376;8.742;2024-02-04T02:57:33;8.70;99.90
14349;DHT22;7258;50.376;8.742;2024-02-04T02:59:37;8.70;99.90
14349;DHT22;7258;50.376;8.742;2024-02-04T03:01:40;8.70;99.90
14349;DHT22;7258;50.376;8.742;2024-02-04T03:03:43;8.60;99.90
14349;DHT22;7258;50.376;8.742;2024-02-04T03:05:46;8.60;99.90
14349;DHT22;7258;50.376;8.742;2024-02-04T03:07:49;8.60;99.90
14349;DHT22;7258;50.376;8.742;2024-02-04T03:09:53;8.60;99.90
14349;DHT22;7258;50.376;8.742;2024-02-04T03:11:56;8.50;99.90
14349;DHT22;7258;50.376;8.742;2024-02-04T03:13:59;8.50;99.90
14349;DHT22;7258;50.376;8.742;2024-02-04T03:16:04;8.50;99.90
14349;DHT22;7258;50.376;8.742;2024-02-04T03:18:06;8.50;99.90
14349;DHT22;7258;50.376;8.742;2024-02-04T03:20:10;8.50;99.90
14349;DHT22;7258;50.376;8.742;2024-02-04T03:22:13;8.50;99.90
14349;DHT22;7258;50.376;8.742;2024-02-04T03:24:16;8.50;99.90
14349;DHT22;7258;50.376;8.742;2024-02-04T03:26:19;8.50;99.90
14349;DHT22;7258;50.376;8.742;2024-02-04T03:28:21;8.50;99.90
14349;DHT22;7258;50.376;8.742;2024-02-04T03:30:24;8.50;99.90
14349;DHT22;7258;50.376;8.742;2024-02-04T03:32:29;8.50;99.90
14349;DHT22;7258;50.376;8.742;2024-02-04T03:34:36;8.40;99.90
14349;DHT22;7258;50.376;8.742;2024-02-04T03:36:39;8.40;99.90
14349;DHT22;7258;50.376;8.742;2024-02-04T03:38:41;8.40;99.90
14349;DHT22;7258;50.376;8.742;2024-02-04T03:40:45;8.40;99.90
14349;DHT22;7258;50.376;8.742;2024-02-04T03:42:48;8.40;99.90
14349;DHT22;7258;50.376;8.742;2024-02-04T03:44:51;8.40;99.90
14349;DHT22;7258;50.376;8.742;2024-02-04T03:46:54;8.40;99.90
14349;DHT22;7258;50.376;8.742;2024-02-04T03:48:58;8.40;99.90
14349;DHT22;7258;50.376;8.742;2024-02-04T03:51:01;8.40;99.90
14349;DHT22;7258;50.376;8.742;2024-02-04T03:53:04;8.40;99.90
14349;DHT22;7258;50.376;8.742;2024-02-04T03:55:07;8.30;99.90
14349;DHT22;7258;50.376;8.742;2024-02-04T03:57:09;8.30;99.90
14349;DHT22;7258;50.376;8.742;2024-02-04T03:59:12;8.30;99.90
14349;DHT22;7258;50.376;8.742;2024-02-04T04:01:14;8.30;99.90
14349;DHT22;7258;50.376;8.742;2024-02-04T04:03:18;8.30;99.90
14349;DHT22;7258;50.376;8.742;2024-02-04T04:05:22;8.30;99.90
14349;DHT22;7258;50.376;8.742;2024-02-04T04:07:28;8.40;99.90
14349;DHT22;7258;50.376;8.742;2024-02-04T04:09:31;8.40;99.90
14349;DHT22;7258;50.376;8.742;2024-02-04T04:11:34;8.40;99.90
14349;DHT22;7258;50.376;8.742;2024-02-04T04:13:38;8.40;99.90
14349;DHT22;7258;50.376;8.742;2024-02-04T04:15:41;8.40;99.90
14349;DHT22;7258;50.376;8.742;2024-02-04T04:17:44;8.50;99.90
14349;DHT22;7258;50.376;8.742;2024-02-04T04:19:48;8.50;99.90
14349;DHT22;7258;50.376;8.742;2024-02-04T04:21:52;8.50;99.90
14349;DHT22;7258;50.376;8.742;2024-02-04T04:23:56;8.50;99.90
14349;DHT22;7258;50.376;8.742;2024-02-04T04:25:58;8.50;99.90
14349;DHT22;7258;50.376;8.742;2024-02-04T04:28:01;8.50;99.90
14349;DHT22;7258;50.376;8.742;2024-02-04T04:30:04;8.60;99.90
14349;DHT22;7258;50.376;8.742;2024-02-04T04:32:07;8.60;99.90
14349;DHT22;7258;50.376;8.742;2024-02-04T04:34:09;8.50;99.90
14349;DHT22;7258;50.376;8.742;2024-02-04T04:36:13;8.50;99.90
14349;DHT22;7258;50.376;8.742;2024-02-04T04:38:17;8.50;99.90
14349;DHT22;7258;50.376;8.742;2024-02-04T04:40:20;8.50;99.90
14349;DHT22;7258;50.376;8.742;2024-02-04T04:42:23;8.50;99.90
14349;DHT22;7258;50.376;8.742;2024-02-04T04:44:26;8.50;99.90
14349;DHT22;7258;50.376;8.742;2024-02-04T04:46:29;8.60;99.90
14349;DHT22;7258;50.376;8.742;2024-02-04T04:48:33;8.60;99.90
14349;DHT22;7258;50.376;8.742;2024-02-04T04:50:39;8.60;99.90
14349;DHT22;7258;50.376;8.742;2024-02-04T04:52:42;8.60;99.90
14349;DHT22;7258;50.376;8.742;2024-02-04T04:54:48;8.60;99.90
14349;DHT22;7258;50.376;8.742;2024-02-04T04:56:50;8.60;99.90
14349;DHT22;7258;50.376;8.742;2024-02-04T04:58:53;8.60;99.90
14349;DHT22;7258;50.376;8.742;2024-02-04T05:00:56;8.60;99.90
14349;DHT22;7258;50.376;8.742;2024-02-04T05:02:59;8.70;99.90
14349;DHT22;7258;50.376;8.742;2024-02-04T05:05:03;8.70;99.90
14349;DHT22;7258;50.376;8.742;2024-02-04T05:07:06;8.70;99.90
14349;DHT22;7258;50.376;8.742;2024-02-04T05:09:09;8.70;99.90
14349;DHT22;7258;50.376;8.742;2024-02-04T05:11:13;8.70;99.90
14349;DHT22;7258;50.376;8.742;2024-02-04T05:13:16;8.70;99.90
14349;DHT22;7258;50.376;8.742;2024-02-04T05:15:19;8.70;99.90
14349;DHT22;7258;50.376;8.742;2024-02-04T05:17:21;8.70;99.90
14349;DHT22;7258;50.376;8.742;2024-02-04T05:19:24;8.70;99.90
14349;DHT22;7258;50.376;8.742;2024-02-04T05:21:27;8.70;99.90
14349;DHT22;7258;50.376;8.742;2024-02-04T05:23:30;8.60;99.90
14349;DHT22;7258;50.376;8.742;2024-02-04T05:25:32;8.60;99.90
14349;DHT22;7258;50.376;8.742;2024-02-04T05:27:37;8.60;99.90
14349;DHT22;7258;50.376;8.742;2024-02-04T05:29:43;8.60;99.90
14349;DHT22;7258;50.376;8.742;2024-02-04T05:31:46;8.60;99.90
14349;DHT22;7258;50.376;8.742;2024-02-04T05:33:51;8.60;99.90
14349;DHT22;7258;50.376;8.742;2024-02-04T05:35:55;8.60;99.90
14349;DHT22;7258;50.376;8.742;2024-02-04T05:37:58;8.60;99.90
14349;DHT22;7258;50.376;8.742;2024-02-04T05:40:00;8.60;99.90
14349;DHT22;7258;50.376;8.742;2024-02-04T05:42:04;8.60;99.90
14349;DHT22;7258;50.376;8.742;2024-02-04T05:44:09;8.60;99.90
14349;DHT22;7258;50.376;8.742;2024-02-04T05:46:13;8.60;99.90
14349;DHT22;7258;50.376;8.742;2024-02-04T05:48:16;8.60;99.90
14349;DHT22;7258;50.376;8.742;2024-02-04T05:50:19;8.60;99.90
14349;DHT22;7258;50.376;8.742;2024-02-04T05:52:22;8.60;99.90
14349;DHT22;7258;50.376;8.742;2024-02-04T05:54:25;8.60;99.90
14349;DHT22;7258;50.376;8.742;2024-02-04T05:56:27;8.60;99.90
14349;DHT22;7258;50.376;8.742;2024-02-04T05:58:30;8.60;99.90
14349;DHT22;7258;50.376;8.742;2024-02-04T06:00:34;8.70;99.90
14349;DHT22;7258;50.376;8.742;2024-02-04T06:02:37;8.70;99.90
14349;DHT22;7258;50.376;8.742;2024-02-04T06:04:40;8.70;99.90
14349;DHT22;7258;50.376;8.742;2024-02-04T06:06:43;8.70;99.90
14349;DHT22;7258;50.376;8.742;2024-02-04T06:08:46;8.70;99.90
14349;DHT22;7258;50.376;8.742;2024-02-04T06:10:49;8.70;99.90
14349;DHT22;7258;50.376;8.742;2024-02-04T06:12:51;8.70;99.90
14349;DHT22;7258;50.376;8.742;2024-02-04T06:14:54;8.70;99.90
14349;DHT22;7258;50.376;8.742;2024-02-04T06:16:58;8.70;99.90
14349;DHT22;7258;50.376;8.742;2024-02-04T06:19:01;8.70;99.90
14349;DHT22;7258;50.376;8.742;2024-02-04T06:21:04;8.70;99.90
14349;DHT22;7258;50.376;8.742;2024-02-04T06:23:07;8.70;99.90
14349;DHT22;7258;50.376;8.742;2024-02-04T06:25:11;8.60;99.90
14349;DHT22;7258;50.376;8.742;2024-02-04T06:27:12;8.60;99.90
14349;DHT22;7258;50.376;8.742;2024-02-04T06:29:15;8.60;99.90
14349;DHT22;7258;50.376;8.742;2024-02-04T06:31:18;8.60;99.90
14349;DHT22;7258;50.376;8.742;2024-02-04T06:33:23;8.60;99.90
14349;DHT22;7258;50.376;8.742;2024-02-04T06:35:27;8.60;99.90
14349;DHT22;7258;50.376;8.742;2024-02-04T06:37:30;8.60;99.90
14349;DHT22;7258;50.376;8.742;2024-02-04T06:39:32;8.60;99.90
14349;DHT22;7258;50.376;8.742;2024-02-04T06:41:35;8.60;99.90
14349;DHT22;7258;50.376;8.742;2024-02-04T06:43:38;8.60;99.90
14349;DHT22;7258;50.376;8.742;2024-02-04T06:45:41;8.60;99.90
14349;DHT22;7258;50.376;8.742;2024-02-04T06:47:44;8.50;99.90
14349;DHT22;7258;50.376;8.742;2024-02-04T06:49:49;8.50;99.90
14349;DHT22;7258;50.376;8.742;2024-02-04T06:51:51;8.50;99.90
14349;DHT22;7258;50.376;8.742;2024-02-04T06:53:58;8.50;99.90
14349;DHT22;7258;50.376;8.742;2024-02-04T06:56:01;8.50;99.90
14349;DHT22;7258;50.376;8.742;2024-02-04T06:58:04;8.50;99.90
14349;DHT22;7258;50.376;8.742;2024-02-04T07:00:06;8.50;99.90
14349;DHT22;7258;50.376;8.742;2024-02-04T07:02:10;8.50;99.90
14349;DHT22;7258;50.376;8.742;2024-02-04T07:04:13;8.50;99.90
14349;DHT22;7258;50.376;8.742;2024-02-04T07:06:18;8.50;99.90
14349;DHT22;7258;50.376;8.742;2024-02-04T07:08:21;8.50;99.90
14349;DHT22;7258;50.376;8.742;2024-02-04T07:10:24;8.50;99.90
14349;DHT22;7258;50.376;8.742;2024-02-04T07:12:27;8.50;99.90
14349;DHT22;7258;50.376;8.742;2024-02-04T07:14:29;8.50;99.90
14349;DHT22;7258;50.376;8.742;2024-02-04T07:16:32;8.50;99.90
14349;DHT22;7258;50.376;8.742;2024-02-04T07:18:36;8.50;99.90
14349;DHT22;7258;50.376;8.742;2024-02-04T07:20:47;8.50;99.90
14349;DHT22;7258;50.376;8.742;2024-02-04T07:22:54;8.50;99.90
14349;DHT22;7258;50.376;8.742;2024-02-04T07:24:56;8.50;99.90
14349;DHT22;7258;50.376;8.742;2024-02-04T07:27:01;8.50;99.90
14349;DHT22;7258;50.376;8.742;2024-02-04T07:29:04;8.50;99.90
14349;DHT22;7258;50.376;8.742;2024-02-04T07:31:08;8.50;99.90
14349;DHT22;7258;50.376;8.742;2024-02-04T07:33:11;8.50;99.90
14349;DHT22;7258;50.376;8.742;2024-02-04T07:35:15;8.50;99.90
14349;DHT22;7258;50.376;8.742;2024-02-04T07:37:22;8.50;99.90
14349;DHT22;7258;50.376;8.742;2024-02-04T07:39:27;8.50;99.90
14349;DHT22;7258;50.376;8.742;2024-02-04T07:41:32;8.50;99.90
14349;DHT22;7258;50.376;8.742;2024-02-04T07:43:35;8.50;99.90
14349;DHT22;7258;50.376;8.742;2024-02-04T07:45:37;8.50;99.90
14349;DHT22;7258;50.376;8.742;2024-02-04T07:47:44;8.50;99.90
14349;DHT22;7258;50.376;8.742;2024-02-04T07:49:47;8.50;99.90
14349;DHT22;7258;50.376;8.742;2024-02-04T07:51:51;8.60;99.90
14349;DHT22;7258;50.376;8.742;2024-02-04T07:54:17;8.60;99.90
14349;DHT22;7258;50.376;8.742;2024-02-04T07:56:50;8.60;99.90
14349;DHT22;7258;50.376;8.742;2024-02-04T07:58:56;8.70;99.90
14349;DHT22;7258;50.376;8.742;2024-02-04T08:01:20;8.60;99.90
14349;DHT22;7258;50.376;8.742;2024-02-04T08:03:27;8.60;99.90
14349;DHT22;7258;50.376;8.742;2024-02-04T08:05:30;8.60;99.90
14349;DHT22;7258;50.376;8.742;2024-02-04T08:07:35;8.60;99.90
14349;DHT22;7258;50.376;8.742;2024-02-04T08:09:45;8.60;99.90
14349;DHT22;7258;50.376;8.742;2024-02-04T08:11:54;8.60;99.90
14349;DHT22;7258;50.376;8.742;2024-02-04T08:14:00;8.60;99.90
14349;DHT22;7258;50.376;8.742;2024-02-04T08:16:21;8.70;99.90
14349;DHT22;7258;50.376;8.742;2024-02-04T08:18:24;8.70;99.90
14349;DHT22;7258;50.376;8.742;2024-02-04T08:20:27;8.70;99.90
14349;DHT22;7258;50.376;8.742;2024-02-04T08:22:30;8.70;99.90
14349;DHT22;7258;50.376;8.742;2024-02-04T08:24:33;8.80;99.90
14349;DHT22;7258;50.376;8.742;2024-02-04T08:26:35;8.80;99.90
14349;DHT22;7258;50.376;8.742;2024-02-04T08:28:40;8.80;99.90
14349;DHT22;7258;50.376;8.742;2024-02-04T08:30:43;8.80;99.90
14349;DHT22;7258;50.376;8.742;2024-02-04T08:32:46;8.80;99.90
14349;DHT22;7258;50.376;8.742;2024-02-04T08:34:48;8.80;99.90
14349;DHT22;7258;50.376;8.742;2024-02-04T08:36:51;8.80;99.90
14349;DHT22;7258;50.376;8.742;2024-02-04T08:38:54;8.80;99.90
14349;DHT22;7258;50.376;8.742;2024-02-04T08:40:56;8.80;99.90
14349;DHT22;7258;50.376;8.742;2024-02-04T08:42:58;8.90;99.90
14349;DHT22;7258;50.376;8.742;2024-02-04T08:45:03;8.90;99.90
14349;DHT22;7258;50.376;8.742;2024-02-04T08:47:07;9.00;99.90
14349;DHT22;7258;50.376;8.742;2024-02-04T08:49:12;9.00;99.90
14349;DHT22;7258;50.376;8.742;2024-02-04T08:51:15;9.00;99.90
14349;DHT22;7258;50.376;8.742;2024-02-04T08:53:20;9.00;99.90
14349;DHT22;7258;50.376;8.742;2024-02-04T08:55:23;9.00;99.90
14349;DHT22;7258;50.376;8.742;2024-02-04T08:57:25;9.00;99.90
14349;DHT22;7258;50.376;8.742;2024-02-04T08:59:28;9.00;99.90
14349;DHT22;7258;50.376;8.742;2024-02-04T09:01:32;9.00;99.90
14349;DHT22;7258;50.376;8.742;2024-02-04T09:03:35;9.00;99.90
14349;DHT22;7258;50.376;8.742;2024-02-04T09:05:38;9.00;99.90
14349;DHT22;7258;50.376;8.742;2024-02-04T09:07:41;9.00;99.90
14349;DHT22;7258;50.376;8.742;2024-02-04T09:09:44;9.00;99.90
14349;DHT22;7258;50.376;8.742;2024-02-04T09:11:47;9.00;99.90
14349;DHT22;7258;50.376;8.742;2024-02-04T09:13:50;9.00;99.90
14349;DHT22;7258;50.376;8.742;2024-02-04T09:15:52;9.00;99.90
14349;DHT22;7258;50.376;8.742;2024-02-04T09:17:58;9.10;99.90
14349;DHT22;7258;50.376;8.742;2024-02-04T09:20:00;9.10;99.90
14349;DHT22;7258;50.376;8.742;2024-02-04T09:22:05;9.10;99.90
14349;DHT22;7258;50.376;8.742;2024-02-04T09:24:15;9.20;99.90
14349;DHT22;7258;50.376;8.742;2024-02-04T09:26:18;9.20;99.90
14349;DHT22;7258;50.376;8.742;2024-02-04T09:28:20;9.30;99.90
14349;DHT22;7258;50.376;8.742;2024-02-04T09:30:23;9.30;99.90
14349;DHT22;7258;50.376;8.742;2024-02-04T09:32:26;9.30;99.90
14349;DHT22;7258;50.376;8.742;2024-02-04T09:34:30;9.40;99.90
14349;DHT22;7258;50.376;8.742;2024-02-04T09:36:33;9.40;99.90
14349;DHT22;7258;50.376;8.742;2024-02-04T09:38:37;9.40;99.90
14349;DHT22;7258;50.376;8.742;2024-02-04T09:40:39;9.40;99.90
14349;DHT22;7258;50.376;8.742;2024-02-04T09:42:43;9.40;99.90
14349;DHT22;7258;50.376;8.742;2024-02-04T09:44:47;9.50;99.90
14349;DHT22;7258;50.376;8.742;2024-02-04T09:46:51;9.50;99.90
14349;DHT22;7258;50.376;8.742;2024-02-04T09:48:55;9.50;99.90
14349;DHT22;7258;50.376;8.742;2024-02-04T09:51:00;9.60;99.90
14349;DHT22;7258;50.376;8.742;2024-02-04T09:53:06;9.60;99.90
14349;DHT22;7258;50.376;8.742;2024-02-04T09:55:13;9.70;99.90
14349;DHT22;7258;50.376;8.742;2024-02-04T09:57:18;9.70;99.90
14349;DHT22;7258;50.376;8.742;2024-02-04T09:59:20;9.70;99.90
14349;DHT22;7258;50.376;8.742;2024-02-04T10:01:23;9.70;99.90
14349;DHT22;7258;50.376;8.742;2024-02-04T10:03:26;9.70;99.90
14349;DHT22;7258;50.376;8.742;2024-02-04T10:05:30;9.70;99.90
14349;DHT22;7258;50.376;8.742;2024-02-04T10:07:34;9.70;99.90
14349;DHT22;7258;50.376;8.742;2024-02-04T10:09:37;9.70;99.90
14349;DHT22;7258;50.376;8.742;2024-02-04T10:11:40;9.80;99.90
14349;DHT22;7258;50.376;8.742;2024-02-04T10:13:44;9.80;99.90
14349;DHT22;7258;50.376;8.742;2024-02-04T10:15:47;9.80;99.90
14349;DHT22;7258;50.376;8.742;2024-02-04T10:17:50;9.90;99.90
14349;DHT22;7258;50.376;8.742;2024-02-04T10:19:55;9.90;99.90
14349;DHT22;7258;50.376;8.742;2024-02-04T10:21:59;10.00;99.90
14349;DHT22;7258;50.376;8.742;2024-02-04T10:24:06;10.00;99.90
14349;DHT22;7258;50.376;8.742;2024-02-04T10:26:09;10.10;99.90
14349;DHT22;7258;50.376;8.742;2024-02-04T10:28:12;10.00;99.90
14349;DHT22;7258;50.376;8.742;2024-02-04T10:30:18;10.00;99.90
14349;DHT22;7258;50.376;8.742;2024-02-04T10:32:22;10.10;99.90
14349;DHT22;7258;50.376;8.742;2024-02-04T10:34:27;10.10;99.90
14349;DHT22;7258;50.376;8.742;2024-02-04T10:36:31;10.10;99.90
14349;DHT22;7258;50.376;8.742;2024-02-04T10:38:34;10.20;99.90
14349;DHT22;7258;50.376;8.742;2024-02-04T10:40:39;10.20;99.90
14349;DHT22;7258;50.376;8.742;2024-02-04T10:42:42;10.20;99.90
14349;DHT22;7258;50.376;8.742;2024-02-04T10:44:47;10.30;99.90
14349;DHT22;7258;50.376;8.742;2024-02-04T10:46:52;10.30;99.90
14349;DHT22;7258;50.376;8.742;2024-02-04T10:48:59;10.30;99.90
14349;DHT22;7258;50.376;8.742;2024-02-04T10:51:03;10.30;99.90
14349;DHT22;7258;50.376;8.742;2024-02-04T10:53:10;10.40;99.90
14349;DHT22;7258;50.376;8.742;2024-02-04T10:55:15;10.40;99.90
14349;DHT22;7258;50.376;8.742;2024-02-04T10:57:21;10.50;99.90
14349;DHT22;7258;50.376;8.742;2024-02-04T10:59:25;10.60;99.90
14349;DHT22;7258;50.376;8.742;2024-02-04T11:01:31;10.70;99.90
14349;DHT22;7258;50.376;8.742;2024-02-04T11:03:35;10.70;99.90
14349;DHT22;7258;50.376;8.742;2024-02-04T11:05:39;10.70;99.90
14349;DHT22;7258;50.376;8.742;2024-02-04T11:07:45;10.80;99.90
14349;DHT22;7258;50.376;8.742;2024-02-04T11:09:48;10.80;99.90
14349;DHT22;7258;50.376;8.742;2024-02-04T11:11:53;10.90;99.90
14349;DHT22;7258;50.376;8.742;2024-02-04T11:14:01;11.10;99.90
14349;DHT22;7258;50.376;8.742;2024-02-04T11:16:14;11.20;99.90
14349;DHT22;7258;50.376;8.742;2024-02-04T11:18:47;11.20;99.90
14349;DHT22;7258;50.376;8.742;2024-02-04T11:21:07;11.20;99.90
14349;DHT22;7258;50.376;8.742;2024-02-04T11:23:28;11.10;99.90
14349;DHT22;7258;50.376;8.742;2024-02-04T11:25:43;11.10;99.90
14349;DHT22;7258;50.376;8.742;2024-02-04T11:27:47;11.10;99.90
14349;DHT22;7258;50.376;8.742;2024-02-04T11:29:52;11.10;99.90
14349;DHT22;7258;50.376;8.742;2024-02-04T11:31:56;11.20;99.90
14349;DHT22;7258;50.376;8.742;2024-02-04T11:34:01;11.40;99.90
14349;DHT22;7258;50.376;8.742;2024-02-04T11:36:05;11.60;99.90
14349;DHT22;7258;50.376;8.742;2024-02-04T11:38:09;11.70;99.90
14349;DHT22;7258;50.376;8.742;2024-02-04T11:40:14;11.80;99.90
14349;DHT22;7258;50.376;8.742;2024-02-04T11:42:19;11.90;99.90
14349;DHT22;7258;50.376;8.742;2024-02-04T11:44:22;11.90;99.90
14349;DHT22;7258;50.376;8.742;2024-02-04T11:46:30;11.90;99.90
14349;DHT22;7258;50.376;8.742;2024-02-04T11:48:35;11.80;99.90
14349;DHT22;7258;50.376;8.742;2024-02-04T11:50:40;11.70;99.90
14349;DHT22;7258;50.376;8.742;2024-02-04T11:52:44;11.70;99.90
14349;DHT22;7258;50.376;8.742;2024-02-04T11:54:47;11.70;99.90
14349;DHT22;7258;50.376;8.742;2024-02-04T11:56:51;11.70;99.90
14349;DHT22;7258;50.376;8.742;2024-02-04T11:58:55;11.60;99.90
14349;DHT22;7258;50.376;8.742;2024-02-04T12:00:58;11.50;99.90
14349;DHT22;7258;50.376;8.742;2024-02-04T12:03:02;11.40;99.90
14349;DHT22;7258;50.376;8.742;2024-02-04T12:05:06;11.40;99.90
14349;DHT22;7258;50.376;8.742;2024-02-04T12:07:09;11.40;99.90
14349;DHT22;7258;50.376;8.742;2024-02-04T12:09:16;11.60;99.90
14349;DHT22;7258;50.376;8.742;2024-02-04T12:11:20;11.70;99.90
14349;DHT22;7258;50.376;8.742;2024-02-04T12:13:24;11.90;99.90
14349;DHT22;7258;50.376;8.742;2024-02-04T12:15:28;12.00;99.90
14349;DHT22;7258;50.376;8.742;2024-02-04T12:17:30;12.00;99.90
14349;DHT22;7258;50.376;8.742;2024-02-04T12:19:48;12.00;99.90
14349;DHT22;7258;50.376;8.742;2024-02-04T12:21:55;12.00;99.90
14349;DHT22;7258;50.376;8.742;2024-02-04T12:23:58;12.00;99.90
14349;DHT22;7258;50.376;8.742;2024-02-04T12:26:01;12.00;99.90
14349;DHT22;7258;50.376;8.742;2024-02-04T12:28:05;11.90;99.90
14349;DHT22;7258;50.376;8.742;2024-02-04T12:30:09;12.00;99.90
14349;DHT22;7258;50.376;8.742;2024-02-04T12:32:13;12.10;99.90
14349;DHT22;7258;50.376;8.742;2024-02-04T12:34:17;12.10;99.90
14349;DHT22;7258;50.376;8.742;2024-02-04T12:36:20;12.10;99.90
14349;DHT22;7258;50.376;8.742;2024-02-04T12:38:23;12.10;99.90
14349;DHT22;7258;50.376;8.742;2024-02-04T12:40:28;12.20;99.90
14349;DHT22;7258;50.376;8.742;2024-02-04T12:42:30;12.20;99.90
14349;DHT22;7258;50.376;8.742;2024-02-04T12:44:33;12.20;99.90
14349;DHT22;7258;50.376;8.742;2024-02-04T12:46:36;12.10;99.90
14349;DHT22;7258;50.376;8.742;2024-02-04T12:48:39;12.10;99.90
14349;DHT22;7258;50.376;8.742;2024-02-04T12:50:41;12.10;99.90
14349;DHT22;7258;50.376;8.742;2024-02-04T12:52:46;12.00;99.90
14349;DHT22;7258;50.376;8.742;2024-02-04T12:54:49;12.00;99.90
14349;DHT22;7258;50.376;8.742;2024-02-04T12:56:54;11.90;99.90
14349;DHT22;7258;50.376;8.742;2024-02-04T12:58:58;11.90;99.90
14349;DHT22;7258;50.376;8.742;2024-02-04T13:01:01;11.80;99.90
14349;DHT22;7258;50.376;8.742;2024-02-04T13:03:05;11.70;99.90
14349;DHT22;7258;50.376;8.742;2024-02-04T13:05:09;11.70;99.90
14349;DHT22;7258;50.376;8.742;2024-02-04T13:07:14;11.70;99.90
14349;DHT22;7258;50.376;8.742;2024-02-04T13:09:20;11.70;99.90
14349;DHT22;7258;50.376;8.742;2024-02-04T13:11:24;11.80;99.90
14349;DHT22;7258;50.376;8.742;2024-02-04T13:13:27;11.90;99.90
14349;DHT22;7258;50.376;8.742;2024-02-04T13:15:32;11.90;99.90
14349;DHT22;7258;50.376;8.742;2024-02-04T13:17:35;11.80;99.90
14349;DHT22;7258;50.376;8.742;2024-02-04T13:19:38;11.80;99.90
14349;DHT22;7258;50.376;8.742;2024-02-04T13:21:45;11.80;99.90
14349;DHT22;7258;50.376;8.742;2024-02-04T13:23:49;11.80;99.90
14349;DHT22;7258;50.376;8.742;2024-02-04T13:25:53;11.80;99.90
14349;DHT22;7258;50.376;8.742;2024-02-04T13:27:57;11.80;99.90